Time;durP1;ratioP1;P1;durP2;ratioP2;P2;SDS_P1;SDS_P2;PMS_P1;PMS_P2;Temp;Humidity;BMP_temperature;BMP_pressure;BME280_temperature;BME280_humidity;BME280_pressure;Samples;Min_cycle;Max_cycle;Signal;HPM_P1;HPM_P2
2023/08/06 00:00:02;;;;;;;;;0.00;0.00;;;;;;;;5115552;27;28400;-76
2023/08/06 00:02:27;;;;;;;;;0.00;0.00;;;;;;;;5115119;27;28579;-76
2023/08/06 00:04:52;;;;;;;;;0.00;0.00;;;;;;;;5115243;27;28372;-77
2023/08/06 00:07:17;;;;;;;;;0.00;0.00;;;;;;;;5115522;27;28474;-78
2023/08/06 00:09:43;;;;;;;;;0.00;0.00;;;;;;;;5115395;27;30385;-76
2023/08/06 00:12:08;;;;;;;;;0.00;0.00;;;;;;;;5114229;27;28476;-76
2023/08/06 00:14:33;;;;;;;;;0.00;0.00;;;;;;;;5115339;27;28335;-74
2023/08/06 00:23:36;;;;;;;;;;;;;;;;;;2647614;27;234068282;-75
2023/08/06 00:31:02;;;;;;;;;0.00;0.00;;;;;;;;10075;27;177180374;-75
2023/08/06 00:39:44;;;;;;;;;0.00;0.00;;;;;;;;2;270179646;270179646;-72
2023/08/06 00:47:18;;;;;;;;;0.00;0.00;;;;;;;;2;220024496;220024496;-73
2023/08/06 00:50:49;;;;;;;;;0.00;0.00;;;;;;;;2;172215348;172215348;-73
2023/08/06 01:00:56;;;;;;;;;0.00;0.00;;;;;;;;176454;27;236766156;-72
2023/08/06 01:09:29;;;;;;;;;;;;;;;;;;2;243069607;243069607;-72
2023/08/06 01:17:29;;;;;;;;;0.00;0.00;;;;;;;;2;252812661;252812661;-72
2023/08/06 01:24:13;;;;;;;;;0.00;0.00;;;;;;;;2;201269059;201269059;-72
2023/08/06 01:32:18;;;;;;;;;0.00;0.00;;;;;;;;2;253839433;253839433;-72
2023/08/06 01:40:48;;;;;;;;;1.00;1.00;;;;;;;;2;237797614;237797614;-72
2023/08/06 01:48:48;;;;;;;;;0.00;0.00;;;;;;;;2;253175436;253175436;-72
2023/08/06 01:57:12;;;;;;;;;0.50;0.50;;;;;;;;2;235175966;235175966;-72
2023/08/06 02:05:11;;;;;;;;;0.00;0.00;;;;;;;;2;253133341;253133341;-73
2023/08/06 02:13:33;;;;;;;;;0.50;0.50;;;;;;;;2;234137616;234137616;-74
2023/08/06 02:21:09;;;;;;;;;0.00;0.00;;;;;;;;2;229814046;229814046;-73
2023/08/06 02:29:34;;;;;;;;;0.00;0.00;;;;;;;;2;235158241;235158241;-72
2023/08/06 02:37:29;;;;;;;;;0.00;0.00;;;;;;;;2;249908042;249908042;-72
2023/08/06 02:47:37;;;;;;;;;0.00;0.00;;;;;;;;3;123710463;227457996;-73
2023/08/06 02:55:29;;;;;;;;;0.00;0.00;;;;;;;;2;231104158;231104158;-73
2023/08/06 03:04:18;;;;;;;;;1.00;1.00;;;;;;;;2;274313690;274313690;-72
2023/08/06 03:06:53;;;;;;;;;1.00;1.00;;;;;;;;2;155323688;155323688;-72
2023/08/06 03:11:13;;;;;;;;;3.50;0.50;;;;;;;;341796;27;224807788;-72
2023/08/06 03:20:06;;;;;;;;;1.50;1.50;;;;;;;;74566;27;232575404;-73
2023/08/06 03:28:03;;;;;;;;;1.00;1.00;;;;;;;;2;250038345;250038345;-72
2023/08/06 03:40:04;;;;;;;;;9.00;0.00;;;;;;;;107885;27;250163963;-72
2023/08/06 03:45:49;;;;;;;;;1.00;1.00;;;;;;;;2;203429312;203429312;-72
2023/08/06 03:48:41;;;;;;;;;1.00;1.00;;;;;;;;2;171782573;171782573;-72
2023/08/06 03:56:34;;;;;;;;;0.50;0.50;;;;;;;;344591;27;249923707;-72
2023/08/06 04:05:01;;;;;;;;;0.00;0.00;;;;;;;;2;233770972;233770972;-71
2023/08/06 04:13:03;;;;;;;;;1.50;1.50;;;;;;;;2;253135176;253135176;-73
2023/08/06 04:21:13;;;;;;;;;0.50;0.50;;;;;;;;2;232355570;232355570;-72
2023/08/06 04:24:31;;;;;;;;;0.50;0.50;;;;;;;;310355;27;100589981;-72
2023/08/06 04:34:31;;;;;;;;;4.00;4.00;;;;;;;;345485;27;257743956;-72
2023/08/06 04:41:57;;;;;;;;;0.00;0.00;;;;;;;;2;213689344;213689344;-71
2023/08/06 04:45:24;;;;;;;;;2.00;2.00;;;;;;;;174195;28;127251241;-71
2023/08/06 04:53:34;;;;;;;;;;;;;;;;;;151411;28;279081944;-72
2023/08/06 05:02:16;;;;;;;;;0.00;0.00;;;;;;;;4;25614878;266843349;-72
2023/08/06 05:08:01;;;;;;;;;2.00;2.00;;;;;;;;43025;28;193137935;-72
2023/08/06 05:14:28;;;;;;;;;0.00;0.00;;;;;;;;2;237314427;237314427;-70
2023/08/06 05:24:07;;;;;;;;;2.00;2.00;;;;;;;;3;68712949;261619545;-71
2023/08/06 05:31:41;;;;;;;;;1.00;1.00;;;;;;;;2;222714778;222714778;-71
2023/08/06 05:35:53;;;;;;;;;1.00;1.00;;;;;;;;155691;28;118167298;-72
2023/08/06 05:45:08;;;;;;;;;1.00;1.00;;;;;;;;445022;28;242012207;-73
2023/08/06 05:52:33;;;;;;;;;0.00;0.00;;;;;;;;2;220094710;220094710;-73
2023/08/06 06:01:12;;;;;;;;;0.50;0.50;;;;;;;;2;267189998;267189998;-73
2023/08/06 06:08:47;;;;;;;;;1.00;1.00;;;;;;;;2;223105554;223105554;-73
2023/08/06 06:16:13;;;;;;;;;4.50;0.50;;;;;;;;2;265133461;265133461;-72
2023/08/06 06:22:09;;;;;;;;;0.50;0.50;;;;;;;;350742;27;179204777;-72
2023/08/06 06:25:12;;;;;;;;;0.00;0.00;;;;;;;;3;69595122;82627051;-73
2023/08/06 06:27:37;;;;;;;;;0.75;0.75;;;;;;;;542696;27;38865303;-72
2023/08/06 06:30:04;;;;;;;;;2.00;1.00;;;;;;;;4454010;27;4379699;-72
2023/08/06 06:32:29;;;;;;;;;2.00;2.00;;;;;;;;5111654;27;37266;-73
2023/08/06 06:34:54;;;;;;;;;0.00;0.00;;;;;;;;5112753;27;28374;-73
2023/08/06 06:37:19;;;;;;;;;1.50;1.00;;;;;;;;5112618;27;28996;-73
2023/08/06 06:39:44;;;;;;;;;1.25;0.50;;;;;;;;5113056;27;28363;-73
2023/08/06 06:42:10;;;;;;;;;0.75;0.75;;;;;;;;5111122;27;28474;-73
2023/08/06 06:44:35;;;;;;;;;0.75;0.75;;;;;;;;5112772;27;28570;-73
2023/08/06 06:47:00;;;;;;;;;0.50;0.50;;;;;;;;5112469;27;28586;-73
2023/08/06 06:49:25;;;;;;;;;0.50;0.50;;;;;;;;5112651;27;27754;-72
2023/08/06 06:51:51;;;;;;;;;0.00;0.00;;;;;;;;5113139;27;28405;-73
2023/08/06 06:54:16;;;;;;;;;0.00;0.00;;;;;;;;5112599;27;28483;-73
2023/08/06 06:56:41;;;;;;;;;0.50;0.50;;;;;;;;5111989;27;28511;-73
2023/08/06 06:59:06;;;;;;;;;1.00;1.00;;;;;;;;5111677;27;28435;-73
2023/08/06 07:01:32;;;;;;;;;0.00;0.00;;;;;;;;5112454;27;28409;-73
2023/08/06 07:03:57;;;;;;;;;1.00;1.00;;;;;;;;5112236;27;28381;-73
2023/08/06 07:06:22;;;;;;;;;0.75;0.75;;;;;;;;5111487;27;28367;-73
2023/08/06 07:08:47;;;;;;;;;1.00;0.00;;;;;;;;5037518;27;2023861;-73
2023/08/06 07:11:12;;;;;;;;;0.00;0.00;;;;;;;;3570305;27;43612412;-73
2023/08/06 07:13:38;;;;;;;;;0.00;0.00;;;;;;;;4939840;27;2934382;-73
2023/08/06 07:16:03;;;;;;;;;2.50;0.50;;;;;;;;5111514;27;29020;-73
2023/08/06 07:18:29;;;;;;;;;1.25;0.00;;;;;;;;5110704;27;31267;-72
2023/08/06 07:20:55;;;;;;;;;;;;;;;;;;3785806;27;39151999;-74
2023/08/06 07:23:21;;;;;;;;;0.00;0.00;;;;;;;;5109491;27;28777;-73
2023/08/06 07:26:05;;;;;;;;;0.00;0.00;;;;;;;;5076299;27;19103048;-73
2023/08/06 07:28:30;;;;;;;;;1.00;1.00;;;;;;;;5112184;27;28406;-73
2023/08/06 07:30:55;;;;;;;;;0.25;0.25;;;;;;;;5111770;27;28460;-74
2023/08/06 07:33:20;;;;;;;;;1.00;0.00;;;;;;;;5112070;27;28643;-72
2023/08/06 07:35:46;;;;;;;;;1.00;1.00;;;;;;;;5112160;27;28431;-71
2023/08/06 07:38:11;;;;;;;;;0.00;0.00;;;;;;;;5111954;27;27817;-71
2023/08/06 07:40:37;;;;;;;;;0.75;0.75;;;;;;;;5111794;27;28461;-72
2023/08/06 07:43:02;;;;;;;;;1.00;1.00;;;;;;;;5111840;27;28513;-72
2023/08/06 07:45:28;;;;;;;;;0.00;0.00;;;;;;;;5111414;27;28413;-72
2023/08/06 07:47:53;;;;;;;;;0.75;0.75;;;;;;;;5111979;27;28394;-73
2023/08/06 07:50:18;;;;;;;;;0.00;0.00;;;;;;;;5111757;27;28395;-71
2023/08/06 07:52:43;;;;;;;;;1.00;1.00;;;;;;;;5111799;27;28381;-72
2023/08/06 07:55:08;;;;;;;;;1.00;0.00;;;;;;;;5111765;27;28353;-72
2023/08/06 07:57:34;;;;;;;;;0.67;0.67;;;;;;;;5111832;27;28471;-71
2023/08/06 08:00:21;;;;;;;;;0.00;0.00;;;;;;;;4427487;27;41122524;-71
2023/08/06 08:02:47;;;;;;;;;0.75;0.75;;;;;;;;5111575;27;28526;-71
2023/08/06 08:05:12;;;;;;;;;0.00;0.00;;;;;;;;5110921;27;28396;-71
2023/08/06 08:07:37;;;;;;;;;0.50;0.50;;;;;;;;5111380;27;28391;-72
2023/08/06 08:10:05;;;;;;;;;2.00;0.50;;;;;;;;5113772;27;28378;-72
2023/08/06 08:12:30;;;;;;;;;0.75;0.00;;;;;;;;5114639;27;28596;-72
2023/08/06 08:14:55;;;;;;;;;2.00;1.00;;;;;;;;5114975;27;28444;-71
2023/08/06 08:17:20;;;;;;;;;0.00;0.00;;;;;;;;5115203;27;28612;-71
2023/08/06 08:19:45;;;;;;;;;1.00;1.00;;;;;;;;5114009;27;28401;-73
2023/08/06 08:22:10;;;;;;;;;1.50;1.50;;;;;;;;5114706;27;28438;-72
2023/08/06 08:24:36;;;;;;;;;1.00;1.00;;;;;;;;5114916;27;28318;-72
2023/08/06 08:27:01;;;;;;;;;0.50;0.50;;;;;;;;5115042;27;28415;-73
2023/08/06 08:29:26;;;;;;;;;0.00;0.00;;;;;;;;5114551;27;28527;-72
2023/08/06 08:31:51;;;;;;;;;0.00;0.00;;;;;;;;5114942;27;28390;-71
2023/08/06 08:34:17;;;;;;;;;0.00;0.00;;;;;;;;5114951;27;28460;-75
2023/08/06 08:36:43;;;;;;;;;1.00;1.00;;;;;;;;5114766;27;30288;-74
2023/08/06 08:39:08;;;;;;;;;0.25;0.25;;;;;;;;5114891;27;28405;-74
2023/08/06 08:41:35;;;;;;;;;0.50;0.50;;;;;;;;5114613;27;28573;-75
2023/08/06 08:44:00;;;;;;;;;1.50;1.00;;;;;;;;5114462;27;28502;-75
2023/08/06 08:46:32;;;;;;;;;0.00;0.00;;;;;;;;5096250;27;30428;-74
2023/08/06 08:48:59;;;;;;;;;1.25;1.25;;;;;;;;5114467;27;28400;-73
2023/08/06 08:51:25;;;;;;;;;1.00;1.00;;;;;;;;5114621;27;28415;-73
2023/08/06 08:53:52;;;;;;;;;1.50;0.00;;;;;;;;5114552;27;28444;-74
2023/08/06 08:56:19;;;;;;;;;0.00;0.00;;;;;;;;5114283;27;28718;-75
2023/08/06 08:58:44;;;;;;;;;0.25;0.25;;;;;;;;5114362;27;28441;-74
2023/08/06 09:01:10;;;;;;;;;1.00;1.00;;;;;;;;5114549;27;28626;-75
2023/08/06 09:03:36;;;;;;;;;1.00;1.00;;;;;;;;5114346;27;28397;-74
2023/08/06 09:06:02;;;;;;;;;0.50;0.50;;;;;;;;5114370;27;28405;-73
2023/08/06 09:08:30;;;;;;;;;0.00;0.00;;;;;;;;5114566;27;28511;-75
2023/08/06 09:10:56;;;;;;;;;0.00;0.00;;;;;;;;5114379;27;28485;-75
2023/08/06 09:13:23;;;;;;;;;1.00;0.00;;;;;;;;5113993;27;28576;-74
2023/08/06 09:15:50;;;;;;;;;0.00;0.00;;;;;;;;5113921;27;29100;-74
2023/08/06 09:18:24;;;;;;;;;0.00;0.00;;;;;;;;3981531;27;18524985;-74
2023/08/06 09:21:58;;;;;;;;;;;;;;;;;;4411263;27;83050074;-74
2023/08/06 09:24:23;;;;;;;;;1.00;1.00;;;;;;;;4999946;27;1863462;-75
2023/08/06 09:26:48;;;;;;;;;0.00;0.00;;;;;;;;5112405;27;29134;-74
2023/08/06 09:29:14;;;;;;;;;1.67;0.67;;;;;;;;5113804;27;29038;-74
2023/08/06 09:31:46;;;;;;;;;0.00;0.00;;;;;;;;5113584;27;28922;-78
2023/08/06 09:34:16;;;;;;;;;2.33;1.00;;;;;;;;5113556;27;29151;-73
2023/08/06 09:36:42;;;;;;;;;1.33;0.00;;;;;;;;5113681;27;29041;-75
2023/08/06 09:39:17;;;;;;;;;0.00;0.00;;;;;;;;5113465;27;29188;-75
2023/08/06 09:41:43;;;;;;;;;1.50;1.00;;;;;;;;5113062;27;28888;-74
2023/08/06 09:44:27;;;;;;;;;0.75;0.25;;;;;;;;5113472;27;28598;-75
2023/08/06 09:46:53;;;;;;;;;0.00;0.00;;;;;;;;5113652;27;28844;-75
2023/08/06 09:49:20;;;;;;;;;1.00;0.00;;;;;;;;5113456;27;29200;-75
2023/08/06 09:51:48;;;;;;;;;0.33;0.33;;;;;;;;5113761;27;28727;-75
2023/08/06 09:54:15;;;;;;;;;1.00;0.00;;;;;;;;5113211;27;28808;-74
2023/08/06 09:56:40;;;;;;;;;0.33;0.00;;;;;;;;5111785;27;28572;-74
2023/08/06 09:59:08;;;;;;;;;0.00;0.00;;;;;;;;5113622;27;29099;-74
2023/08/06 10:01:34;;;;;;;;;0.33;0.33;;;;;;;;5113476;27;28451;-74
2023/08/06 10:04:01;;;;;;;;;0.33;0.33;;;;;;;;5113412;27;28726;-75
2023/08/06 10:06:26;;;;;;;;;0.00;0.00;;;;;;;;5113201;27;28923;-73
2023/08/06 10:08:51;;;;;;;;;1.00;1.00;;;;;;;;5112977;27;28836;-74
2023/08/06 10:11:17;;;;;;;;;0.33;0.00;;;;;;;;5111648;27;36867;-74
2023/08/06 10:13:43;;;;;;;;;0.00;0.00;;;;;;;;5112809;27;28837;-74
2023/08/06 10:16:08;;;;;;;;;0.00;0.00;;;;;;;;5112710;27;29099;-73
2023/08/06 10:18:36;;;;;;;;;0.00;0.00;;;;;;;;5112611;27;29696;-74
2023/08/06 10:21:01;;;;;;;;;0.00;0.00;;;;;;;;5112811;27;28619;-74
2023/08/06 10:23:44;;;;;;;;;1.00;0.00;;;;;;;;5112747;27;28869;-75
2023/08/06 10:26:09;;;;;;;;;0.00;0.00;;;;;;;;5112541;27;29015;-74
2023/08/06 10:28:36;;;;;;;;;0.33;0.33;;;;;;;;5112479;27;29730;-75
2023/08/06 10:31:01;;;;;;;;;1.00;1.00;;;;;;;;5111638;27;29497;-75
2023/08/06 10:33:39;;;;;;;;;0.00;0.00;;;;;;;;5107356;27;45436;-77
2023/08/06 10:36:09;;;;;;;;;0.00;0.00;;;;;;;;5095977;27;45338;-75
2023/08/06 10:38:36;;;;;;;;;0.00;0.00;;;;;;;;5098550;27;47365;-73
2023/08/06 10:41:02;;;;;;;;;0.00;0.00;;;;;;;;5108551;27;45383;-73
2023/08/06 10:43:28;;;;;;;;;0.00;0.00;;;;;;;;5112842;27;28484;-74
2023/08/06 10:45:53;;;;;;;;;0.00;0.00;;;;;;;;5111912;27;43030;-74
2023/08/06 10:48:33;;;;;;;;;0.00;0.00;;;;;;;;5107825;27;45360;-76
2023/08/06 10:51:00;;;;;;;;;0.00;0.00;;;;;;;;3380799;27;48764102;-76
2023/08/06 10:53:25;;;;;;;;;0.00;0.00;;;;;;;;5097190;27;45677;-75
2023/08/06 10:55:50;;;;;;;;;0.00;0.00;;;;;;;;5097502;27;45412;-75
2023/08/06 10:58:16;;;;;;;;;0.00;0.00;;;;;;;;5095122;27;45394;-75
2023/08/06 11:00:41;;;;;;;;;0.00;0.00;;;;;;;;5096446;27;45346;-75
2023/08/06 11:03:08;;;;;;;;;0.00;0.00;;;;;;;;5096462;27;45438;-74
2023/08/06 11:05:33;;;;;;;;;0.00;0.00;;;;;;;;5096702;27;45398;-74
2023/08/06 11:07:58;;;;;;;;;0.00;0.00;;;;;;;;5096271;27;45356;-76
2023/08/06 11:10:24;;;;;;;;;0.00;0.00;;;;;;;;5095027;27;45364;-74
2023/08/06 11:12:49;;;;;;;;;1.00;1.00;;;;;;;;5095583;27;45961;-75
2023/08/06 11:15:14;;;;;;;;;0.00;0.00;;;;;;;;5093970;27;45477;-75
2023/08/06 11:17:40;;;;;;;;;0.00;0.00;;;;;;;;5095113;27;45616;-75
2023/08/06 11:20:05;;;;;;;;;1.00;0.00;;;;;;;;5094981;27;45385;-76
2023/08/06 11:22:31;;;;;;;;;0.00;0.00;;;;;;;;5095919;27;45712;-78
2023/08/06 11:24:56;;;;;;;;;1.00;1.00;;;;;;;;5094428;27;45438;-76
2023/08/06 11:27:22;;;;;;;;;0.00;0.00;;;;;;;;5095196;27;45684;-76
2023/08/06 11:29:47;;;;;;;;;0.67;0.00;;;;;;;;5095168;27;45370;-73
2023/08/06 11:32:12;;;;;;;;;0.00;0.00;;;;;;;;5095120;27;45450;-73
2023/08/06 11:34:38;;;;;;;;;0.00;0.00;;;;;;;;5093542;27;45745;-75
2023/08/06 11:37:05;;;;;;;;;0.00;0.00;;;;;;;;5094174;27;46305;-75
2023/08/06 11:39:31;;;;;;;;;0.00;0.00;;;;;;;;5094704;27;45467;-75
2023/08/06 11:41:57;;;;;;;;;0.00;0.00;;;;;;;;5095320;27;45769;-74
2023/08/06 11:44:22;;;;;;;;;0.00;0.00;;;;;;;;5094694;27;45671;-75
2023/08/06 11:46:55;;;;;;;;;0.75;0.75;;;;;;;;5094520;27;46293;-76
2023/08/06 11:49:21;;;;;;;;;1.33;0.00;;;;;;;;5094694;27;45705;-75
2023/08/06 11:51:47;;;;;;;;;0.00;0.00;;;;;;;;5094292;27;45427;-76
2023/08/06 11:54:12;;;;;;;;;0.00;0.00;;;;;;;;5094885;27;45455;-76
2023/08/06 11:56:38;;;;;;;;;2.00;0.00;;;;;;;;5094788;27;45463;-74
2023/08/06 11:59:03;;;;;;;;;0.00;0.00;;;;;;;;5094973;27;45555;-76
2023/08/06 12:01:28;;;;;;;;;0.75;0.75;;;;;;;;5094655;27;45380;-76
2023/08/06 12:03:58;;;;;;;;;2.00;1.00;;;;;;;;5094123;27;45428;-76
2023/08/06 12:06:26;;;;;;;;;18.25;14.75;;;;;;;;5092893;27;47501;-74
2023/08/06 12:08:51;;;;;;;;;16.50;13.25;;;;;;;;5094604;27;45709;-74
2023/08/06 12:11:17;;;;;;;;;0.75;0.75;;;;;;;;5095103;27;45419;-74
2023/08/06 12:13:42;;;;;;;;;0.50;0.50;;;;;;;;5096546;27;45458;-74
2023/08/06 12:16:07;;;;;;;;;0.75;0.75;;;;;;;;5092465;27;46968;-75
2023/08/06 12:18:32;;;;;;;;;2.00;2.00;;;;;;;;4779037;27;6349431;-76
2023/08/06 12:20:58;;;;;;;;;0.00;0.00;;;;;;;;5082724;27;370288;-76
2023/08/06 12:23:23;;;;;;;;;;;;;;;;;;4255019;27;23917998;-76
2023/08/06 12:25:51;;;;;;;;;0.00;0.00;;;;;;;;160601;27;143155880;-76
2023/08/06 12:28:16;;;;;;;;;0.00;0.00;;;;;;;;5096271;27;45362;-76
2023/08/06 12:34:30;;;;;;;;;0.00;0.00;;;;;;;;4561818;27;207351020;-75
2023/08/06 12:37:09;;;;;;;;;;;;;;;;;;176264;27;153539728;-77
2023/08/06 12:39:37;;;;;;;;;0.00;0.00;;;;;;;;4017923;27;24895955;-77
2023/08/06 12:42:02;;;;;;;;;0.00;0.00;;;;;;;;5095253;27;45387;-76
2023/08/06 12:44:28;;;;;;;;;0.00;0.00;;;;;;;;5094215;27;45343;-76
2023/08/06 12:46:53;;;;;;;;;1.25;0.25;;;;;;;;5093886;27;45347;-76
2023/08/06 12:49:20;;;;;;;;;1.33;1.33;;;;;;;;5095164;27;45377;-76
2023/08/06 12:51:46;;;;;;;;;1.00;1.00;;;;;;;;5095019;27;45452;-76
2023/08/06 12:54:11;;;;;;;;;0.67;0.00;;;;;;;;5095443;27;45394;-76
2023/08/06 12:56:36;;;;;;;;;1.00;1.00;;;;;;;;5098330;27;45281;-75
2023/08/06 12:59:01;;;;;;;;;1.00;1.00;;;;;;;;5098440;27;45394;-74
2023/08/06 13:01:27;;;;;;;;;0.00;0.00;;;;;;;;5097443;27;45343;-75
2023/08/06 13:03:52;;;;;;;;;0.25;0.25;;;;;;;;5098233;27;45317;-75
2023/08/06 13:06:17;;;;;;;;;3.33;0.00;;;;;;;;5098566;27;45268;-76
2023/08/06 13:08:42;;;;;;;;;0.00;0.00;;;;;;;;5100813;27;45310;-75
2023/08/06 13:11:08;;;;;;;;;0.75;0.75;;;;;;;;5110741;27;44653;-75
2023/08/06 13:13:33;;;;;;;;;1.33;1.00;;;;;;;;5098435;27;47216;-76
2023/08/06 13:15:58;;;;;;;;;0.00;0.00;;;;;;;;5098260;27;45457;-74
2023/08/06 13:18:23;;;;;;;;;1.25;1.00;;;;;;;;5098025;27;45365;-75
2023/08/06 13:20:52;;;;;;;;;4.00;1.50;;;;;;;;5098419;27;45376;-75
2023/08/06 13:23:17;;;;;;;;;1.00;1.00;;;;;;;;4116987;27;27871250;-74
2023/08/06 13:25:42;;;;;;;;;0.00;0.00;;;;;;;;5097043;27;45433;-75
2023/08/06 13:28:08;;;;;;;;;0.00;0.00;;;;;;;;5098047;27;45743;-75
2023/08/06 13:30:35;;;;;;;;;0.50;0.50;;;;;;;;5096881;27;45378;-75
2023/08/06 13:33:01;;;;;;;;;1.00;1.00;;;;;;;;5097611;27;45419;-72
2023/08/06 13:35:26;;;;;;;;;0.33;0.33;;;;;;;;5098014;27;45539;-72
2023/08/06 13:37:51;;;;;;;;;0.00;0.00;;;;;;;;5098098;27;45351;-72
2023/08/06 13:40:16;;;;;;;;;0.00;0.00;;;;;;;;4803220;27;8348480;-72
2023/08/06 13:42:42;;;;;;;;;1.00;0.00;;;;;;;;5098229;27;45633;-73
2023/08/06 13:45:07;;;;;;;;;0.33;0.33;;;;;;;;5079361;27;45487;-72
2023/08/06 13:48:58;;;;;;;;;;;;;;;;;;3614170;27;128328355;-71
2023/08/06 13:59:04;;;;;;;;;0.00;0.00;;;;;;;;4563121;27;220334086;-72
2023/08/06 14:07:47;;;;;;;;;;;;;;;;;;2;279082905;279082905;-73
2023/08/06 14:14:31;;;;;;;;;0.00;0.00;;;;;;;;2;221974809;221974809;-72
2023/08/06 14:16:56;;;;;;;;;1.00;0.50;;;;;;;;5089451;27;175559;-72
2023/08/06 14:19:21;;;;;;;;;1.00;1.00;;;;;;;;5096813;27;45369;-72
2023/08/06 14:21:46;;;;;;;;;1.00;0.00;;;;;;;;5095641;27;45372;-72
2023/08/06 14:24:16;;;;;;;;;;;;;;;;;;337348;27;69535635;-72
2023/08/06 14:26:41;;;;;;;;;1.00;1.00;;;;;;;;2058069;27;38383575;-72
2023/08/06 14:29:06;;;;;;;;;0.00;0.00;;;;;;;;3151521;27;55309385;-72
2023/08/06 14:31:31;;;;;;;;;0.00;0.00;;;;;;;;5096632;27;45434;-72
2023/08/06 14:33:57;;;;;;;;;2.00;0.00;;;;;;;;5096925;27;45389;-72
2023/08/06 14:36:22;;;;;;;;;1.00;1.00;;;;;;;;5096621;27;45418;-73
2023/08/06 14:38:47;;;;;;;;;0.00;0.00;;;;;;;;5096527;27;45359;-72
2023/08/06 14:41:12;;;;;;;;;0.00;0.00;;;;;;;;5096736;27;45430;-72
2023/08/06 14:43:38;;;;;;;;;2.00;0.00;;;;;;;;5096580;27;45431;-73
2023/08/06 14:46:05;;;;;;;;;;;;;;;;;;3343505;27;42872192;-73
2023/08/06 14:48:31;;;;;;;;;0.00;0.00;;;;;;;;4984426;27;3178024;-72
2023/08/06 14:50:56;;;;;;;;;0.33;0.00;;;;;;;;4439319;27;18677550;-73
2023/08/06 14:53:21;;;;;;;;;0.00;0.00;;;;;;;;5098593;27;45293;-73
2023/08/06 14:55:47;;;;;;;;;0.00;0.00;;;;;;;;5096526;27;45652;-73
2023/08/06 14:58:12;;;;;;;;;0.00;0.00;;;;;;;;5096490;27;45686;-72
2023/08/06 15:00:37;;;;;;;;;1.67;0.00;;;;;;;;5094600;27;45647;-72
2023/08/06 15:03:40;;;;;;;;;;;;;;;;;;4108215;27;66273631;-73
2023/08/06 15:07:46;;;;;;;;;1.50;1.50;;;;;;;;172205;27;178018569;-73
2023/08/06 15:10:14;;;;;;;;;0.00;0.00;;;;;;;;2252817;28;80394167;-72
2023/08/06 15:12:39;;;;;;;;;0.00;0.00;;;;;;;;5075913;27;45435;-71
2023/08/06 15:16:31;;;;;;;;;0.00;0.00;;;;;;;;1820673;27;99311936;-71
2023/08/06 15:18:56;;;;;;;;;0.00;0.00;;;;;;;;5075123;28;45613;-72
2023/08/06 15:21:21;;;;;;;;;0.00;0.00;;;;;;;;5075623;27;45398;-73
2023/08/06 15:23:46;;;;;;;;;1.00;0.00;;;;;;;;5075577;27;45422;-71
2023/08/06 15:27:56;;;;;;;;;0.00;0.00;;;;;;;;4711014;27;81892222;-71
2023/08/06 15:35:18;;;;;;;;;;;;;;;;;;408199;28;279084360;-75
2023/08/06 15:43:25;;;;;;;;;0.00;0.00;;;;;;;;524910;28;213216169;-75
2023/08/06 15:51:29;;;;;;;;;0.00;0.00;;;;;;;;2;258468240;258468240;-74
2023/08/06 15:58:00;;;;;;;;;0.00;0.00;;;;;;;;2;200675758;200675758;-74
2023/08/06 16:01:02;;;;;;;;;0.00;0.00;;;;;;;;1034181;28;69343988;-75
2023/08/06 16:03:39;;;;;;;;;0.50;0.50;;;;;;;;495019;28;84710052;-75
2023/08/06 16:12:55;;;;;;;;;0.00;0.00;;;;;;;;1016238;28;265514707;-75
2023/08/06 16:20:24;;;;;;;;;1.00;1.00;;;;;;;;2;217770376;217770376;-74
2023/08/06 16:28:52;;;;;;;;;0.00;0.00;;;;;;;;2;262263193;262263193;-73
2023/08/06 16:36:26;;;;;;;;;0.00;0.00;;;;;;;;2;223873804;223873804;-76
2023/08/06 16:44:56;;;;;;;;;0.00;0.00;;;;;;;;2;264166850;264166850;-74
2023/08/06 16:52:23;;;;;;;;;0.00;0.00;;;;;;;;2;221452970;221452970;-75
2023/08/06 17:00:55;;;;;;;;;0.00;0.00;;;;;;;;2;264233375;264233375;-74
2023/08/06 17:08:29;;;;;;;;;0.00;0.00;;;;;;;;2;220686043;220686043;-75
2023/08/06 17:16:44;;;;;;;;;0.00;0.00;;;;;;;;2;262358296;262358296;-75
2023/08/06 17:19:09;;;;;;;;;0.00;0.00;;;;;;;;1254841;27;109205468;-75
2023/08/06 17:21:34;;;;;;;;;0.00;0.00;;;;;;;;5098281;27;45370;-76
2023/08/06 17:23:59;;;;;;;;;0.00;0.00;;;;;;;;5098283;27;45275;-76
2023/08/06 17:26:25;;;;;;;;;0.00;0.00;;;;;;;;5098053;27;45404;-75
2023/08/06 17:31:27;;;;;;;;;0.00;0.00;;;;;;;;4696308;27;163813002;-76
2023/08/06 17:34:31;;;;;;;;;;;;;;;;;;337234;27;168579675;-72
2023/08/06 17:39:43;;;;;;;;;0.00;0.00;;;;;;;;1017812;27;194535386;-70
2023/08/06 17:46:54;;;;;;;;;0.00;0.00;;;;;;;;173573;27;209199398;-71
2023/08/06 17:54:30;;;;;;;;;0.00;0.00;;;;;;;;2;239462765;239462765;-71
2023/08/06 17:59:43;;;;;;;;;0.00;0.00;;;;;;;;2;204673972;204673972;-71
2023/08/06 18:07:43;;;;;;;;;0.00;0.00;;;;;;;;1541907;27;228631866;-71
2023/08/06 18:14:41;;;;;;;;;0.00;0.00;;;;;;;;2;199985537;199985537;-72
2023/08/06 18:21:00;;;;;;;;;0.00;0.00;;;;;;;;2;205598679;205598679;-71
2023/08/06 18:27:36;;;;;;;;;0.00;0.00;;;;;;;;2;184464854;184464854;-71
2023/08/06 18:33:33;;;;;;;;;0.00;0.00;;;;;;;;2;190829664;190829664;-72
2023/08/06 18:35:58;;;;;;;;;0.00;0.00;;;;;;;;1669274;27;87405185;-73
2023/08/06 18:42:09;;;;;;;;;;;;;;;;;;276500;27;260806808;-72
2023/08/06 18:46:50;;;;;;;;;0.00;0.00;;;;;;;;544230;27;76339632;-71
2023/08/06 18:49:34;;;;;;;;;0.00;0.00;;;;;;;;162262;27;111356322;-72
2023/08/06 18:52:00;;;;;;;;;0.00;0.00;;;;;;;;5096064;27;45312;-72
2023/08/06 18:54:25;;;;;;;;;0.00;0.00;;;;;;;;5096523;27;45542;-72
2023/08/06 18:56:50;;;;;;;;;0.00;0.00;;;;;;;;5096552;27;45338;-72
2023/08/06 18:59:20;;;;;;;;;0.00;0.00;;;;;;;;5096924;27;45339;-72
2023/08/06 19:01:45;;;;;;;;;0.00;0.00;;;;;;;;5096842;27;45400;-73
2023/08/06 19:04:10;;;;;;;;;0.00;0.00;;;;;;;;5096230;27;45383;-72
2023/08/06 19:06:35;;;;;;;;;0.00;0.00;;;;;;;;5095313;27;45450;-73
2023/08/06 19:09:00;;;;;;;;;0.00;0.00;;;;;;;;5096570;27;45355;-72
2023/08/06 19:11:26;;;;;;;;;0.00;0.00;;;;;;;;5095286;27;45405;-72
2023/08/06 19:13:51;;;;;;;;;0.00;0.00;;;;;;;;5096974;27;46111;-71
2023/08/06 19:16:16;;;;;;;;;0.00;0.00;;;;;;;;5096654;27;45463;-72
2023/08/06 19:18:41;;;;;;;;;1.50;0.00;;;;;;;;5096595;27;45406;-72
2023/08/06 19:21:06;;;;;;;;;0.50;0.00;;;;;;;;5096365;27;45439;-72
2023/08/06 19:23:32;;;;;;;;;0.00;0.00;;;;;;;;5096416;27;46260;-72
2023/08/06 19:25:58;;;;;;;;;0.00;0.00;;;;;;;;5053022;27;682577;-72
2023/08/06 19:28:26;;;;;;;;;;;;;;;;;;2082552;27;78366096;-72
2023/08/06 19:30:52;;;;;;;;;0.00;0.00;;;;;;;;4262589;27;12117755;-72
2023/08/06 19:33:17;;;;;;;;;0.00;0.00;;;;;;;;3993703;27;31398656;-71
2023/08/06 19:35:49;;;;;;;;;0.00;0.00;;;;;;;;3799820;27;36680325;-72
2023/08/06 19:38:16;;;;;;;;;0.00;0.00;;;;;;;;5111286;27;29095;-72
2023/08/06 19:40:41;;;;;;;;;0.00;0.00;;;;;;;;5101753;27;45475;-71
2023/08/06 19:43:06;;;;;;;;;0.00;0.00;;;;;;;;5095836;27;45469;-71
2023/08/06 19:45:32;;;;;;;;;0.00;0.00;;;;;;;;5095968;27;45417;-71
2023/08/06 19:47:57;;;;;;;;;0.00;0.00;;;;;;;;5095782;27;45561;-71
2023/08/06 19:50:22;;;;;;;;;0.00;0.00;;;;;;;;5095613;27;45759;-71
2023/08/06 19:52:48;;;;;;;;;0.00;0.00;;;;;;;;5094519;27;45401;-72
2023/08/06 19:55:13;;;;;;;;;0.00;0.00;;;;;;;;5095967;27;45357;-71
2023/08/06 19:57:38;;;;;;;;;0.00;0.00;;;;;;;;5095421;27;45451;-72
2023/08/06 20:05:30;;;;;;;;;0.00;0.00;;;;;;;;1900816;27;122563536;-72
2023/08/06 20:15:10;;;;;;;;;;;;;;;;;;207614;27;243073636;-72
2023/08/06 20:22:33;;;;;;;;;0.00;0.00;;;;;;;;2;229347827;229347827;-73
2023/08/06 20:30:07;;;;;;;;;0.00;0.00;;;;;;;;2;219604604;219604604;-73
2023/08/06 20:37:17;;;;;;;;;0.00;0.00;;;;;;;;2;229341542;229341542;-76
2023/08/06 20:44:59;;;;;;;;;0.50;0.50;;;;;;;;2;212108936;212108936;-76
2023/08/06 20:52:10;;;;;;;;;0.00;0.00;;;;;;;;2;227268761;227268761;-76
2023/08/06 20:59:42;;;;;;;;;0.00;0.00;;;;;;;;2;207177463;207177463;-75
2023/08/06 21:06:53;;;;;;;;;1.00;1.00;;;;;;;;2;224877325;224877325;-75
2023/08/06 21:13:44;;;;;;;;;1.00;1.00;;;;;;;;2;214739020;214739020;-75
2023/08/06 21:17:24;;;;;;;;;1.00;1.00;;;;;;;;1944155;27;82741912;-76
2023/08/06 21:25:09;;;;;;;;;;;;;;;;;;3;17971550;234071475;-76
2023/08/06 21:33:03;;;;;;;;;0.00;0.00;;;;;;;;2;242653714;242653714;-72
2023/08/06 21:37:36;;;;;;;;;0.50;0.50;;;;;;;;2;204669916;204669916;-72
2023/08/06 21:45:01;;;;;;;;;0.50;0.50;;;;;;;;122570;27;197312523;-72
2023/08/06 21:52:51;;;;;;;;;0.00;0.00;;;;;;;;2;238768051;238768051;-73
2023/08/06 21:59:37;;;;;;;;;0.00;0.00;;;;;;;;2;194567216;194567216;-73
2023/08/06 22:07:43;;;;;;;;;0.00;0.00;;;;;;;;2;250575550;250575550;-73
2023/08/06 22:14:49;;;;;;;;;0.00;0.00;;;;;;;;2;209483127;209483127;-73
2023/08/06 22:22:30;;;;;;;;;0.00;0.00;;;;;;;;2;234701757;234701757;-73
2023/08/06 22:29:30;;;;;;;;;0.00;0.00;;;;;;;;2;209371773;209371773;-72
2023/08/06 22:37:37;;;;;;;;;1.50;1.50;;;;;;;;2;251701341;251701341;-72
2023/08/06 22:44:32;;;;;;;;;0.50;0.50;;;;;;;;2;204209624;204209624;-72
2023/08/06 22:52:14;;;;;;;;;3.50;3.50;;;;;;;;2;236907293;236907293;-71